Time;durP1;ratioP1;P1;durP2;ratioP2;P2;SDS_P1;SDS_P2;PMS_P1;PMS_P2;Temp;Humidity;BMP_temperature;BMP_pressure;BME280_temperature;BME280_humidity;BME280_pressure;Samples;Min_cycle;Max_cycle;Signal;HPM_P1;HPM_P2
2023/01/29 00:01:49;;;;;;;;;;;;;;;;;;5096113;28;915;-73
2023/01/29 00:04:14;;;;;;;;;;;;;;;;;;5094686;28;1193;-74
2023/01/29 00:06:39;;;;;;;;;;;;;;;;;;5096288;28;856;-73
2023/01/29 00:09:04;;;;;;;;;;;;;;;;;;5095562;28;1906;-74
2023/01/29 00:11:30;;;;;;;;;;;;;;;;;;5095789;28;899;-74
2023/01/29 00:13:56;;;;;;;;;;;;;;;;;;5095199;28;907;-73
2023/01/29 00:16:23;;;;;;;;;;;;;;;;;;5095741;28;840;-74
2023/01/29 00:18:48;;;;;;;;;;;;;;;;;;5095475;28;856;-73
2023/01/29 00:21:15;;;;;;;;;;;;;;;;;;5094019;28;1183;-74
2023/01/29 00:23:41;;;;;;;;;;;;;;;;;;5093482;28;1170;-73
2023/01/29 00:26:06;;;;;;;;;;;;;;;;;;5093780;28;1247;-74
2023/01/29 00:28:31;;;;;;;;;;;;;;;;;;5077197;28;1902;-74
2023/01/29 00:30:57;;;;;;;;;;;;;;;;;;5093294;28;1258;-73
2023/01/29 00:33:22;;;;;;;;;;;;;;;;;;5095027;28;966;-73
2023/01/29 00:35:47;;;;;;;;;;;;;;;;;;5093965;28;837;-73
2023/01/29 00:38:13;;;;;;;;;;;;;;;;;;5076586;28;1167;-74
2023/01/29 00:46:07;;;;;;;;;;;;;;;;;;5095244;28;721;-74
2023/01/29 00:48:33;;;;;;;;;;;;;;;;;;5094548;28;1985;-74
2023/01/29 00:51:00;;;;;;;;;;;;;;;;;;5076253;28;1301;-74
2023/01/29 00:53:25;;;;;;;;;;;;;;;;;;5094712;28;890;-73
2023/01/29 00:55:50;;;;;;;;;;;;;;;;;;5076454;28;1340;-74
2023/01/29 00:58:21;;;;;;;;;;;;;;;;;;5093074;28;895;-74
2023/01/29 01:00:49;;;;;;;;;;;;;;;;;;5077225;28;1186;-73
2023/01/29 01:03:14;;;;;;;;;;;;;;;;;;5094727;28;892;-74
2023/01/29 01:05:41;;;;;;;;;;;;;;;;;;5094580;28;907;-73
2023/01/29 01:10:19;;;;;;;;;;;;;;;;;;5093298;28;1914;-73
2023/01/29 01:11:18;;;;;;;;;;;;;;;;;;5093686;28;852;-73
2023/01/29 01:13:44;;;;;;;;;;;;;;;;;;5092559;28;1274;-74
2023/01/29 01:16:10;;;;;;;;;;;;;;;;;;5094794;28;821;-74
2023/01/29 01:18:36;;;;;;;;;;;;;;;;;;5093264;28;1257;-74
2023/01/29 01:21:02;;;;;;;;;;;;;;;;;;5093924;28;1150;-74
2023/01/29 01:23:27;;;;;;;;;;;;;;;;;;5093881;28;938;-74
2023/01/29 01:25:52;;;;;;;;;;;;;;;;;;5093016;28;1221;-74
2023/01/29 01:28:18;;;;;;;;;;;;;;;;;;5093784;28;1969;-74
2023/01/29 01:30:43;;;;;;;;;;;;;;;;;;5094105;28;1223;-74
2023/01/29 01:33:08;;;;;;;;;;;;;;;;;;5094438;28;785;-74
2023/01/29 01:35:34;;;;;;;;;;;;;;;;;;5093219;28;1162;-74
2023/01/29 01:38:00;;;;;;;;;;;;;;;;;;5075699;28;1186;-74
2023/01/29 01:40:25;;;;;;;;;;;;;;;;;;5075342;28;1280;-74
2023/01/29 01:42:52;;;;;;;;;;;;;;;;;;5092502;28;1170;-74
2023/01/29 01:45:20;;;;;;;;;;;;;;;;;;5093747;28;842;-74
2023/01/29 01:47:46;;;;;;;;;;;;;;;;;;5093289;28;886;-74
2023/01/29 01:50:18;;;;;;;;;;;;;;;;;;5092116;28;1905;-74
2023/01/29 01:52:47;;;;;;;;;;;;;;;;;;5092020;28;1198;-74
2023/01/29 01:55:15;;;;;;;;;;;;;;;;;;5092166;28;1039;-74
2023/01/29 01:57:41;;;;;;;;;;;;;;;;;;5092137;28;1249;-74
2023/01/29 02:00:11;;;;;;;;;;;;;;;;;;5093125;28;895;-74
2023/01/29 02:10:50;;;;;;;;;;;;;;;;;;5093051;28;631;-74
2023/01/29 02:13:17;;;;;;;;;;;;;;;;;;5075234;28;1023;-74
2023/01/29 02:15:45;;;;;;;;;;;;;;;;;;5093018;28;868;-74
2023/01/29 02:18:11;;;;;;;;;;;;;;;;;;5091185;28;1186;-74
2023/01/29 02:20:37;;;;;;;;;;;;;;;;;;5093395;28;1060;-74
2023/01/29 02:23:03;;;;;;;;;;;;;;;;;;5091981;28;884;-74
2023/01/29 02:25:47;;;;;;;;;;;;;;;;;;5091611;28;1129;-73
2023/01/29 02:28:28;;;;;;;;;;;;;;;;;;5091644;28;1905;-75
2023/01/29 02:31:05;;;;;;;;;;;;;;;;;;5093251;28;1266;-74
2023/01/29 02:33:41;;;;;;;;;;;;;;;;;;5092637;28;1321;-74
2023/01/29 02:36:26;;;;;;;;;;;;;;;;;;5093391;28;915;-74
2023/01/29 02:39:12;;;;;;;;;;;;;;;;;;5091659;28;1254;-74
2023/01/29 02:41:50;;;;;;;;;;;;;;;;;;5091543;28;1269;-74
2023/01/29 02:44:35;;;;;;;;;;;;;;;;;;5092008;28;1119;-73
2023/01/29 02:47:17;;;;;;;;;;;;;;;;;;5091920;28;1256;-74
2023/01/29 02:49:42;;;;;;;;;;;;;;;;;;5093672;28;1910;-74
2023/01/29 02:52:13;;;;;;;;;;;;;;;;;;5092387;28;1281;-75
2023/01/29 02:54:43;;;;;;;;;;;;;;;;;;5093412;28;1084;-74
2023/01/29 02:57:15;;;;;;;;;;;;;;;;;;5092029;28;1245;-73
2023/01/29 02:59:48;;;;;;;;;;;;;;;;;;5091699;28;1289;-74
2023/01/29 03:02:17;;;;;;;;;;;;;;;;;;5091629;28;1146;-74
2023/01/29 03:04:45;;;;;;;;;;;;;;;;;;5091946;28;1150;-73
2023/01/29 03:07:39;;;;;;;;;;;;;;;;;;5093731;28;852;-74
2023/01/29 03:10:01;;;;;;;;;;;;;;;;;;5092681;28;1969;-73
2023/01/29 03:12:32;;;;;;;;;;;;;;;;;;5091548;28;900;-74
2023/01/29 03:15:15;;;;;;;;;;;;;;;;;;5092320;28;927;-74
2023/01/29 03:17:56;;;;;;;;;;;;;;;;;;5092166;28;1178;-74
2023/01/29 03:20:33;;;;;;;;;;;;;;;;;;5094595;28;1240;-73
2023/01/29 03:23:06;;;;;;;;;;;;;;;;;;5095299;28;773;-74
2023/01/29 03:33:57;;;;;;;;;;;;;;;;;;5093903;28;845;-74
2023/01/29 03:36:36;;;;;;;;;;;;;;;;;;5096039;28;856;-74
2023/01/29 03:39:03;;;;;;;;;;;;;;;;;;5094599;28;1230;-74
2023/01/29 03:41:31;;;;;;;;;;;;;;;;;;5094464;28;860;-74
2023/01/29 03:44:09;;;;;;;;;;;;;;;;;;5094613;28;1288;-74
2023/01/29 03:46:43;;;;;;;;;;;;;;;;;;5094593;28;1265;-73
2023/01/29 03:49:08;;;;;;;;;;;;;;;;;;5095627;28;1965;-74
2023/01/29 03:51:34;;;;;;;;;;;;;;;;;;5094498;28;1316;-74
2023/01/29 03:54:05;;;;;;;;;;;;;;;;;;5094832;28;1459;-74
2023/01/29 03:56:36;;;;;;;;;;;;;;;;;;5095980;28;969;-74
2023/01/29 03:59:14;;;;;;;;;;;;;;;;;;5103207;28;931;-74
2023/01/29 04:01:43;;;;;;;;;;;;;;;;;;5094666;28;1285;-74
2023/01/29 04:04:30;;;;;;;;;;;;;;;;;;5096469;28;793;-74
2023/01/29 04:06:59;;;;;;;;;;;;;;;;;;5094270;28;1296;-75
2023/01/29 04:09:34;;;;;;;;;;;;;;;;;;5094488;28;1954;-74
2023/01/29 04:12:10;;;;;;;;;;;;;;;;;;5095409;28;855;-73
2023/01/29 04:14:36;;;;;;;;;;;;;;;;;;5094365;28;1162;-74
2023/01/29 04:17:08;;;;;;;;;;;;;;;;;;5094190;28;1162;-74
2023/01/29 04:19:33;;;;;;;;;;;;;;;;;;5093862;28;1333;-74
2023/01/29 04:22:10;;;;;;;;;;;;;;;;;;5095110;28;916;-74
2023/01/29 04:24:36;;;;;;;;;;;;;;;;;;5095355;28;856;-74
2023/01/29 04:27:10;;;;;;;;;;;;;;;;;;5093999;28;1061;-74
2023/01/29 04:29:52;;;;;;;;;;;;;;;;;;5093870;28;1973;-74
2023/01/29 04:32:27;;;;;;;;;;;;;;;;;;5093666;28;1219;-74
2023/01/29 04:34:52;;;;;;;;;;;;;;;;;;5095062;28;930;-74
2023/01/29 04:37:32;;;;;;;;;;;;;;;;;;5094515;28;919;-74
2023/01/29 04:40:13;;;;;;;;;;;;;;;;;;5093749;28;1261;-74
2023/01/29 04:43:07;;;;;;;;;;;;;;;;;;5093804;28;1209;-74
2023/01/29 04:45:47;;;;;;;;;;;;;;;;;;5078667;28;1223;-74
2023/01/29 04:48:15;;;;;;;;;;;;;;;;;;5093523;28;1985;-74
2023/01/29 04:50:45;;;;;;;;;;;;;;;;;;5094887;28;891;-75
2023/01/29 04:53:10;;;;;;;;;;;;;;;;;;5095161;28;753;-74
2023/01/29 04:55:41;;;;;;;;;;;;;;;;;;5094636;28;865;-75
2023/01/29 04:58:11;;;;;;;;;;;;;;;;;;5093043;28;1197;-74
2023/01/29 05:00:39;;;;;;;;;;;;;;;;;;5093270;28;1250;-74
2023/01/29 05:03:05;;;;;;;;;;;;;;;;;;5093053;28;1206;-74
2023/01/29 05:05:30;;;;;;;;;;;;;;;;;;5093093;28;1217;-74
2023/01/29 05:07:56;;;;;;;;;;;;;;;;;;5093171;28;1170;-75
2023/01/29 05:10:23;;;;;;;;;;;;;;;;;;5076009;28;1910;-74
2023/01/29 05:12:51;;;;;;;;;;;;;;;;;;5094270;28;871;-75
2023/01/29 05:15:26;;;;;;;;;;;;;;;;;;5092904;28;1163;-75
2023/01/29 05:17:52;;;;;;;;;;;;;;;;;;5099518;28;1261;-74
2023/01/29 05:20:19;;;;;;;;;;;;;;;;;;5083273;28;1257;-74
2023/01/29 05:22:45;;;;;;;;;;;;;;;;;;5097081;28;1230;-74
2023/01/29 05:25:22;;;;;;;;;;;;;;;;;;5075771;28;1186;-74
2023/01/29 05:28:04;;;;;;;;;;;;;;;;;;5093649;28;837;-74
2023/01/29 05:30:30;;;;;;;;;;;;;;;;;;5092194;28;1265;-74
2023/01/29 05:32:55;;;;;;;;;;;;;;;;;;5075284;28;1344;-74
2023/01/29 05:35:20;;;;;;;;;;;;;;;;;;5092480;28;1026;-75
2023/01/29 05:37:46;;;;;;;;;;;;;;;;;;5075249;28;1162;-74
2023/01/29 05:40:11;;;;;;;;;;;;;;;;;;5091826;28;1186;-74
2023/01/29 05:42:36;;;;;;;;;;;;;;;;;;5092553;28;861;-75
2023/01/29 05:45:02;;;;;;;;;;;;;;;;;;5092483;28;868;-74
2023/01/29 05:47:27;;;;;;;;;;;;;;;;;;5092291;28;1275;-75
2023/01/29 05:49:52;;;;;;;;;;;;;;;;;;5092564;28;1971;-75
2023/01/29 05:52:17;;;;;;;;;;;;;;;;;;5075631;28;1198;-74
2023/01/29 05:54:43;;;;;;;;;;;;;;;;;;5092097;28;1134;-75
2023/01/29 05:57:08;;;;;;;;;;;;;;;;;;5093281;28;896;-74
2023/01/29 05:59:34;;;;;;;;;;;;;;;;;;5092247;28;789;-75
2023/01/29 06:01:59;;;;;;;;;;;;;;;;;;5074854;28;1234;-75
2023/01/29 06:04:24;;;;;;;;;;;;;;;;;;5074575;28;1265;-74
2023/01/29 06:06:50;;;;;;;;;;;;;;;;;;5091442;28;840;-75
2023/01/29 06:09:15;;;;;;;;;;;;;;;;;;5091744;28;1985;-75
2023/01/29 06:11:40;;;;;;;;;;;;;;;;;;5074442;28;1258;-74
2023/01/29 06:14:05;;;;;;;;;;;;;;;;;;5074723;28;1124;-74
2023/01/29 06:16:31;;;;;;;;;;;;;;;;;;5074447;28;1258;-74
2023/01/29 06:18:56;;;;;;;;;;;;;;;;;;5074870;28;1099;-74
2023/01/29 06:21:22;;;;;;;;;;;;;;;;;;5093074;28;1050;-75
2023/01/29 06:23:47;;;;;;;;;;;;;;;;;;5093042;28;781;-75
2023/01/29 06:26:13;;;;;;;;;;;;;;;;;;5091498;28;797;-74
2023/01/29 06:28:39;;;;;;;;;;;;;;;;;;5093281;28;1961;-74
2023/01/29 06:31:04;;;;;;;;;;;;;;;;;;5092283;28;1305;-74
2023/01/29 06:33:30;;;;;;;;;;;;;;;;;;5091428;28;923;-74
2023/01/29 06:35:56;;;;;;;;;;;;;;;;;;5091353;28;958;-74
2023/01/29 06:38:22;;;;;;;;;;;;;;;;;;5091781;28;1231;-75
2023/01/29 06:40:47;;;;;;;;;;;;;;;;;;5091152;28;1197;-75
2023/01/29 06:43:12;;;;;;;;;;;;;;;;;;5074350;28;1297;-74
2023/01/29 06:45:38;;;;;;;;;;;;;;;;;;5092820;28;789;-74
2023/01/29 06:48:03;;;;;;;;;;;;;;;;;;5074229;28;1902;-74
2023/01/29 06:50:29;;;;;;;;;;;;;;;;;;5092229;28;940;-75
2023/01/29 06:52:54;;;;;;;;;;;;;;;;;;5090777;28;963;-74
2023/01/29 06:55:19;;;;;;;;;;;;;;;;;;5091575;28;1174;-74
2023/01/29 06:57:45;;;;;;;;;;;;;;;;;;5074119;28;1162;-74
2023/01/29 07:00:10;;;;;;;;;;;;;;;;;;5091065;28;1170;-74
2023/01/29 07:02:36;;;;;;;;;;;;;;;;;;5073689;28;1318;-74
2023/01/29 07:05:01;;;;;;;;;;;;;;;;;;5090553;28;855;-74
2023/01/29 07:07:26;;;;;;;;;;;;;;;;;;5090649;28;1245;-74
2023/01/29 07:09:52;;;;;;;;;;;;;;;;;;5095811;28;1905;-74
2023/01/29 07:12:17;;;;;;;;;;;;;;;;;;5095785;28;1138;-74
2023/01/29 07:14:42;;;;;;;;;;;;;;;;;;5096304;28;792;-74
2023/01/29 07:17:10;;;;;;;;;;;;;;;;;;5096713;28;868;-74
2023/01/29 07:19:35;;;;;;;;;;;;;;;;;;5094680;28;1282;-74
2023/01/29 07:22:02;;;;;;;;;;;;;;;;;;5095027;28;1209;-74
2023/01/29 07:24:27;;;;;;;;;;;;;;;;;;5094896;28;907;-74
2023/01/29 07:26:52;;;;;;;;;;;;;;;;;;5077677;28;1226;-74
2023/01/29 07:29:18;;;;;;;;;;;;;;;;;;5096178;28;1913;-74
2023/01/29 07:31:44;;;;;;;;;;;;;;;;;;5094970;28;1223;-74
2023/01/29 07:34:09;;;;;;;;;;;;;;;;;;5077552;28;1186;-74
2023/01/29 07:36:35;;;;;;;;;;;;;;;;;;5077372;28;1127;-74
2023/01/29 07:39:01;;;;;;;;;;;;;;;;;;5094368;28;1158;-74
2023/01/29 07:41:26;;;;;;;;;;;;;;;;;;5095920;28;1265;-74
2023/01/29 07:43:52;;;;;;;;;;;;;;;;;;5115763;28;871;-74
2023/01/29 07:46:17;;;;;;;;;;;;;;;;;;5115011;28;1167;-74
2023/01/29 07:48:42;;;;;;;;;;;;;;;;;;5114470;28;1977;-74
2023/01/29 07:51:07;;;;;;;;;;;;;;;;;;5114183;28;1257;-74
2023/01/29 07:53:33;;;;;;;;;;;;;;;;;;5115953;28;820;-74
2023/01/29 07:55:58;;;;;;;;;;;;;;;;;;5114737;28;876;-73
2023/01/29 07:58:23;;;;;;;;;;;;;;;;;;5115178;28;1344;-74
2023/01/29 08:00:48;;;;;;;;;;;;;;;;;;5114907;28;1300;-74
2023/01/29 08:03:18;;;;;;;;;;;;;;;;;;5114799;28;1130;-74
2023/01/29 08:05:44;;;;;;;;;;;;;;;;;;5114627;28;1225;-74
2023/01/29 08:08:09;;;;;;;;;;;;;;;;;;5114128;28;1901;-74
2023/01/29 08:10:35;;;;;;;;;;;;;;;;;;5114577;28;1224;-74
2023/01/29 08:13:00;;;;;;;;;;;;;;;;;;5116025;28;879;-75
2023/01/29 08:15:26;;;;;;;;;;;;;;;;;;5114563;28;1251;-75
2023/01/29 08:17:52;;;;;;;;;;;;;;;;;;5115985;28;1387;-76
2023/01/29 08:20:18;;;;;;;;;;;;;;;;;;5114802;28;1118;-76
2023/01/29 08:22:43;;;;;;;;;;;;;;;;;;5115793;27;989;-75
2023/01/29 08:25:09;;;;;;;;;;;;;;;;;;5115771;28;966;-75
2023/01/29 08:27:34;;;;;;;;;;;;;;;;;;5114667;28;788;-75
2023/01/29 08:29:59;;;;;;;;;;;;;;;;;;5115853;28;1898;-75
2023/01/29 08:32:24;;;;;;;;;;;;;;;;;;5097186;28;1518;-75
2023/01/29 08:34:50;;;;;;;;;;;;;;;;;;5115289;28;915;-75
2023/01/29 08:37:15;;;;;;;;;;;;;;;;;;5114882;28;809;-76
2023/01/29 08:39:40;;;;;;;;;;;;;;;;;;5097074;28;1273;-75
2023/01/29 08:42:06;;;;;;;;;;;;;;;;;;5115419;28;812;-75
2023/01/29 08:44:31;;;;;;;;;;;;;;;;;;5096663;28;1167;-75
2023/01/29 08:46:56;;;;;;;;;;;;;;;;;;5113379;28;1016;-74
2023/01/29 08:49:22;;;;;;;;;;;;;;;;;;5096147;28;1910;-75
2023/01/29 08:51:47;;;;;;;;;;;;;;;;;;5115163;28;969;-75
2023/01/29 08:54:13;;;;;;;;;;;;;;;;;;5115181;28;835;-75
2023/01/29 08:56:38;;;;;;;;;;;;;;;;;;5113899;28;1190;-75
2023/01/29 08:59:03;;;;;;;;;;;;;;;;;;5113393;28;1154;-75
2023/01/29 09:01:28;;;;;;;;;;;;;;;;;;5114867;28;895;-75
2023/01/29 09:03:54;;;;;;;;;;;;;;;;;;5114002;28;1229;-76
2023/01/29 09:06:19;;;;;;;;;;;;;;;;;;5097197;28;1150;-75
2023/01/29 09:08:44;;;;;;;;;;;;;;;;;;5113542;28;1944;-75
2023/01/29 09:11:10;;;;;;;;;;;;;;;;;;5113795;28;832;-75
2023/01/29 09:13:35;;;;;;;;;;;;;;;;;;5113061;28;1434;-75
2023/01/29 09:16:01;;;;;;;;;;;;;;;;;;5113245;28;954;-75
2023/01/29 09:18:26;;;;;;;;;;;;;;;;;;5096283;28;1377;-76
2023/01/29 09:20:52;;;;;;;;;;;;;;;;;;5114649;28;903;-74
2023/01/29 09:23:18;;;;;;;;;;;;;;;;;;5112551;28;1166;-74
2023/01/29 09:25:44;;;;;;;;;;;;;;;;;;5094804;28;1198;-74
2023/01/29 09:28:09;;;;;;;;;;;;;;;;;;5095539;28;1898;-74
2023/01/29 09:30:36;;;;;;;;;;;;;;;;;;5113832;28;907;-74
2023/01/29 09:33:02;;;;;;;;;;;;;;;;;;5112779;28;1206;-74
2023/01/29 09:35:27;;;;;;;;;;;;;;;;;;5112546;28;1284;-74
2023/01/29 09:37:53;;;;;;;;;;;;;;;;;;5114289;28;848;-74
2023/01/29 09:40:25;;;;;;;;;;;;;;;;;;5112738;28;900;-74
2023/01/29 09:43:01;;;;;;;;;;;;;;;;;;5112322;28;1403;-74
2023/01/29 09:45:27;;;;;;;;;;;;;;;;;;5112713;28;1317;-74
2023/01/29 09:47:57;;;;;;;;;;;;;;;;;;5112228;28;1262;-74
2023/01/29 09:50:22;;;;;;;;;;;;;;;;;;5113777;28;1914;-74
2023/01/29 09:53:00;;;;;;;;;;;;;;;;;;5112280;28;1185;-74
2023/01/29 09:55:27;;;;;;;;;;;;;;;;;;5114078;28;825;-74
2023/01/29 09:58:10;;;;;;;;;;;;;;;;;;5113150;28;895;-74
2023/01/29 10:00:41;;;;;;;;;;;;;;;;;;5112014;28;1189;-72
2023/01/29 10:03:14;;;;;;;;;;;;;;;;;;5113384;28;796;-74
2023/01/29 10:05:42;;;;;;;;;;;;;;;;;;5112343;28;1071;-74
2023/01/29 10:08:26;;;;;;;;;;;;;;;;;;5111599;28;1063;-74
2023/01/29 10:11:24;;;;;;;;;;;;;;;;;;5112860;28;956;-73
2023/01/29 10:14:03;;;;;;;;;;;;;;;;;;5078204;28;1257;-74
2023/01/29 10:16:34;;;;;;;;;;;;;;;;;;5112046;28;1283;-74
2023/01/29 10:19:06;;;;;;;;;;;;;;;;;;5111258;28;1142;-74
2023/01/29 10:21:50;;;;;;;;;;;;;;;;;;5112398;28;1517;-74
2023/01/29 10:24:36;;;;;;;;;;;;;;;;;;5112028;28;1405;-74
2023/01/29 10:27:02;;;;;;;;;;;;;;;;;;5113214;28;816;-74
2023/01/29 10:29:28;;;;;;;;;;;;;;;;;;5095130;28;1961;-74
2023/01/29 10:32:03;;;;;;;;;;;;;;;;;;5113004;28;1206;-74
2023/01/29 10:34:41;;;;;;;;;;;;;;;;;;5113687;28;860;-74
2023/01/29 10:37:29;;;;;;;;;;;;;;;;;;5111397;28;1171;-74
2023/01/29 10:39:58;;;;;;;;;;;;;;;;;;5110944;28;1273;-74
2023/01/29 10:42:37;;;;;;;;;;;;;;;;;;5110985;28;1213;-74
2023/01/29 10:45:05;;;;;;;;;;;;;;;;;;5110820;28;1181;-74
2023/01/29 10:47:33;;;;;;;;;;;;;;;;;;5112769;28;896;-74
2023/01/29 10:50:14;;;;;;;;;;;;;;;;;;5112099;28;1922;-74
2023/01/29 10:52:58;;;;;;;;;;;;;;;;;;5111181;28;1281;-74
2023/01/29 10:55:32;;;;;;;;;;;;;;;;;;5111562;28;1316;-74
2023/01/29 10:58:09;;;;;;;;;;;;;;;;;;5111036;28;1209;-73
2023/01/29 11:00:36;;;;;;;;;;;;;;;;;;5111595;28;1217;-73
2023/01/29 11:03:11;;;;;;;;;;;;;;;;;;5112177;28;950;-74
2023/01/29 11:05:40;;;;;;;;;;;;;;;;;;5111270;28;1165;-74
2023/01/29 11:08:09;;;;;;;;;;;;;;;;;;5111871;28;903;-74
2023/01/29 11:10:39;;;;;;;;;;;;;;;;;;5110862;28;1973;-74
2023/01/29 11:13:05;;;;;;;;;;;;;;;;;;5110909;28;1087;-74
2023/01/29 11:15:32;;;;;;;;;;;;;;;;;;5110987;28;828;-74
2023/01/29 11:18:02;;;;;;;;;;;;;;;;;;5112122;28;637;-75
2023/01/29 11:20:28;;;;;;;;;;;;;;;;;;5112647;28;860;-74
2023/01/29 11:22:54;;;;;;;;;;;;;;;;;;5111931;28;1312;-74
2023/01/29 11:25:20;;;;;;;;;;;;;;;;;;5094090;28;1222;-74
2023/01/29 11:27:51;;;;;;;;;;;;;;;;;;5110510;28;1174;-74
2023/01/29 11:30:16;;;;;;;;;;;;;;;;;;5116313;28;1971;-75
2023/01/29 11:32:42;;;;;;;;;;;;;;;;;;5122068;28;1238;-74
2023/01/29 11:35:13;;;;;;;;;;;;;;;;;;5122438;28;987;-74
2023/01/29 11:37:40;;;;;;;;;;;;;;;;;;5114117;28;836;-74
2023/01/29 11:40:18;;;;;;;;;;;;;;;;;;5112203;28;1067;-74
2023/01/29 11:42:44;;;;;;;;;;;;;;;;;;5112322;28;942;-74
2023/01/29 11:45:18;;;;;;;;;;;;;;;;;;5111339;28;1150;-74
2023/01/29 11:47:47;;;;;;;;;;;;;;;;;;5111561;28;1231;-74
2023/01/29 11:50:19;;;;;;;;;;;;;;;;;;5110859;28;1963;-74
2023/01/29 11:52:44;;;;;;;;;;;;;;;;;;5111228;28;1323;-74
2023/01/29 11:55:24;;;;;;;;;;;;;;;;;;5113586;28;801;-74
2023/01/29 11:57:52;;;;;;;;;;;;;;;;;;5116837;28;828;-74
2023/01/29 12:00:21;;;;;;;;;;;;;;;;;;5115431;28;1353;-74
2023/01/29 12:03:07;;;;;;;;;;;;;;;;;;5114957;28;1297;-74
2023/01/29 12:05:32;;;;;;;;;;;;;;;;;;5115696;28;1313;-74
2023/01/29 12:07:59;;;;;;;;;;;;;;;;;;5114712;28;1253;-74
2023/01/29 12:10:28;;;;;;;;;;;;;;;;;;5114503;28;1898;-74
2023/01/29 12:13:03;;;;;;;;;;;;;;;;;;5115901;28;958;-74
2023/01/29 12:15:28;;;;;;;;;;;;;;;;;;5114687;28;1287;-74
2023/01/29 12:18:12;;;;;;;;;;;;;;;;;;5116024;28;923;-74
2023/01/29 12:20:44;;;;;;;;;;;;;;;;;;5115936;28;816;-74
2023/01/29 12:23:12;;;;;;;;;;;;;;;;;;5115492;28;860;-74
2023/01/29 12:25:49;;;;;;;;;;;;;;;;;;5116138;28;970;-75
2023/01/29 12:28:23;;;;;;;;;;;;;;;;;;5114091;28;1206;-75
2023/01/29 12:31:01;;;;;;;;;;;;;;;;;;5114487;28;1161;-76
2023/01/29 12:33:59;;;;;;;;;;;;;;;;;;5114285;28;1391;-75
2023/01/29 12:36:33;;;;;;;;;;;;;;;;;;5080854;28;1223;-75
2023/01/29 12:38:59;;;;;;;;;;;;;;;;;;5115499;28;879;-75
2023/01/29 12:41:28;;;;;;;;;;;;;;;;;;5114315;28;896;-75
2023/01/29 12:44:04;;;;;;;;;;;;;;;;;;5113776;28;1236;-74
2023/01/29 12:46:31;;;;;;;;;;;;;;;;;;5114042;28;1165;-75
2023/01/29 12:49:00;;;;;;;;;;;;;;;;;;5113375;28;1971;-74
2023/01/29 12:51:32;;;;;;;;;;;;;;;;;;5115377;28;848;-74
2023/01/29 12:54:11;;;;;;;;;;;;;;;;;;5115372;27;887;-75
2023/01/29 12:56:38;;;;;;;;;;;;;;;;;;5113879;28;1198;-74
2023/01/29 12:59:11;;;;;;;;;;;;;;;;;;5114818;28;1166;-75
2023/01/29 13:01:41;;;;;;;;;;;;;;;;;;5114572;28;1273;-74
2023/01/29 13:04:09;;;;;;;;;;;;;;;;;;5113039;28;1105;-75
2023/01/29 13:06:41;;;;;;;;;;;;;;;;;;5113388;28;1161;-75
2023/01/29 13:09:11;;;;;;;;;;;;;;;;;;5115345;28;1906;-75
2023/01/29 13:11:45;;;;;;;;;;;;;;;;;;5115431;28;777;-76
2023/01/29 13:14:23;;;;;;;;;;;;;;;;;;5113082;28;1296;-75
2023/01/29 13:16:50;;;;;;;;;;;;;;;;;;5114795;28;1209;-74
2023/01/29 13:19:22;;;;;;;;;;;;;;;;;;5115500;28;746;-75
2023/01/29 13:21:49;;;;;;;;;;;;;;;;;;5115037;28;863;-74
2023/01/29 13:24:17;;;;;;;;;;;;;;;;;;5113032;28;1231;-75
2023/01/29 13:26:46;;;;;;;;;;;;;;;;;;5113346;28;1309;-72
2023/01/29 13:29:20;;;;;;;;;;;;;;;;;;5113649;28;1955;-72
2023/01/29 13:31:47;;;;;;;;;;;;;;;;;;5112410;28;1392;-72
2023/01/29 13:34:20;;;;;;;;;;;;;;;;;;5111554;28;1430;-72
2023/01/29 13:36:47;;;;;;;;;;;;;;;;;;5114143;28;914;-72
2023/01/29 13:39:19;;;;;;;;;;;;;;;;;;5113765;28;856;-74
2023/01/29 13:41:44;;;;;;;;;;;;;;;;;;5114353;28;891;-74
2023/01/29 13:44:24;;;;;;;;;;;;;;;;;;5112563;28;1225;-75
2023/01/29 13:46:54;;;;;;;;;;;;;;;;;;5113901;28;1019;-75
2023/01/29 13:49:24;;;;;;;;;;;;;;;;;;5112314;28;1979;-75
2023/01/29 13:51:50;;;;;;;;;;;;;;;;;;5112999;28;1214;-75
2023/01/29 13:54:17;;;;;;;;;;;;;;;;;;5112067;28;1443;-74
2023/01/29 13:56:52;;;;;;;;;;;;;;;;;;5112644;28;1261;-75
2023/01/29 13:59:21;;;;;;;;;;;;;;;;;;5112759;28;1223;-74
2023/01/29 14:01:47;;;;;;;;;;;;;;;;;;5112647;28;1248;-74
2023/01/29 14:04:20;;;;;;;;;;;;;;;;;;5112251;28;1197;-74
2023/01/29 14:06:55;;;;;;;;;;;;;;;;;;5111667;28;1217;-74
2023/01/29 14:09:29;;;;;;;;;;;;;;;;;;5111773;28;1909;-74
2023/01/29 14:11:54;;;;;;;;;;;;;;;;;;5112419;28;1146;-74
2023/01/29 14:14:38;;;;;;;;;;;;;;;;;;5112595;28;800;-74
2023/01/29 14:17:05;;;;;;;;;;;;;;;;;;5113018;28;935;-75
2023/01/29 14:19:31;;;;;;;;;;;;;;;;;;5111996;28;1288;-75
2023/01/29 14:21:57;;;;;;;;;;;;;;;;;;5111900;28;1234;-75
2023/01/29 14:24:27;;;;;;;;;;;;;;;;;;5112748;28;961;-75
2023/01/29 14:26:54;;;;;;;;;;;;;;;;;;5112509;28;1037;-74
2023/01/29 14:29:23;;;;;;;;;;;;;;;;;;5111434;28;1985;-75
2023/01/29 14:31:51;;;;;;;;;;;;;;;;;;5112688;28;1233;-74
2023/01/29 14:34:22;;;;;;;;;;;;;;;;;;5111515;28;1467;-74
2023/01/29 14:36:54;;;;;;;;;;;;;;;;;;5111400;28;1224;-74
2023/01/29 14:39:27;;;;;;;;;;;;;;;;;;5111079;28;1190;-74
2023/01/29 14:41:52;;;;;;;;;;;;;;;;;;5113442;28;908;-76
2023/01/29 14:44:36;;;;;;;;;;;;;;;;;;5111973;28;1291;-76
2023/01/29 14:47:03;;;;;;;;;;;;;;;;;;5112968;28;996;-75
2023/01/29 14:50:07;;;;;;;;;;;;;;;;;;5111504;28;1918;-75
2023/01/29 14:52:37;;;;;;;;;;;;;;;;;;5054143;28;1222;-75
2023/01/29 14:55:05;;;;;;;;;;;;;;;;;;5071399;28;816;-74
2023/01/29 14:57:31;;;;;;;;;;;;;;;;;;5092032;28;913;-74
2023/01/29 14:59:58;;;;;;;;;;;;;;;;;;5111906;28;1170;-74
2023/01/29 15:02:36;;;;;;;;;;;;;;;;;;5111311;28;1266;-75
2023/01/29 15:05:03;;;;;;;;;;;;;;;;;;5112213;28;990;-75
2023/01/29 15:07:29;;;;;;;;;;;;;;;;;;5110649;28;1122;-75
2023/01/29 15:10:02;;;;;;;;;;;;;;;;;;5112410;28;1902;-75
2023/01/29 15:12:31;;;;;;;;;;;;;;;;;;5111634;28;1185;-74
2023/01/29 15:15:14;;;;;;;;;;;;;;;;;;5112199;28;1025;-75
2023/01/29 15:18:02;;;;;;;;;;;;;;;;;;5105237;28;1190;-74
2023/01/29 15:20:29;;;;;;;;;;;;;;;;;;5093868;28;1186;-76
2023/01/29 15:22:54;;;;;;;;;;;;;;;;;;5092155;28;963;-75
2023/01/29 15:25:20;;;;;;;;;;;;;;;;;;5089066;28;997;-75
2023/01/29 15:27:47;;;;;;;;;;;;;;;;;;5072524;28;1440;-75
2023/01/29 15:30:17;;;;;;;;;;;;;;;;;;5091777;28;1902;-74
2023/01/29 15:32:43;;;;;;;;;;;;;;;;;;5093502;28;1155;-74
2023/01/29 15:35:10;;;;;;;;;;;;;;;;;;5093575;28;924;-75
2023/01/29 15:37:36;;;;;;;;;;;;;;;;;;5092897;28;1363;-75
2023/01/29 15:40:02;;;;;;;;;;;;;;;;;;5093730;28;1240;-75
2023/01/29 15:42:28;;;;;;;;;;;;;;;;;;5094755;28;1083;-76
2023/01/29 15:44:54;;;;;;;;;;;;;;;;;;5094885;28;1170;-76
2023/01/29 15:47:22;;;;;;;;;;;;;;;;;;5095892;28;911;-75
2023/01/29 15:49:47;;;;;;;;;;;;;;;;;;5095384;28;1973;-75
2023/01/29 15:52:22;;;;;;;;;;;;;;;;;;5096868;28;820;-75
2023/01/29 15:54:48;;;;;;;;;;;;;;;;;;5096862;28;883;-74
2023/01/29 15:57:19;;;;;;;;;;;;;;;;;;5077619;28;1175;-75
2023/01/29 15:59:44;;;;;;;;;;;;;;;;;;5096092;28;891;-75
2023/01/29 16:02:28;;;;;;;;;;;;;;;;;;5094600;28;844;-74
2023/01/29 16:04:53;;;;;;;;;;;;;;;;;;5095280;28;1151;-73
2023/01/29 16:07:19;;;;;;;;;;;;;;;;;;5094199;28;947;-72
2023/01/29 16:09:45;;;;;;;;;;;;;;;;;;5094211;28;1918;-72
2023/01/29 16:12:11;;;;;;;;;;;;;;;;;;5094030;28;892;-73
2023/01/29 16:14:37;;;;;;;;;;;;;;;;;;5094490;28;852;-73
2023/01/29 16:17:34;;;;;;;;;;;;;;;;;;5077006;28;1210;-72
2023/01/29 16:20:01;;;;;;;;;;;;;;;;;;5082171;28;1349;-74
2023/01/29 16:22:31;;;;;;;;;;;;;;;;;;5094258;28;1352;-74
2023/01/29 16:25:00;;;;;;;;;;;;;;;;;;5094179;28;1185;-74
2023/01/29 16:27:25;;;;;;;;;;;;;;;;;;5095311;28;994;-73
2023/01/29 16:29:51;;;;;;;;;;;;;;;;;;5094074;28;1921;-74
2023/01/29 16:32:18;;;;;;;;;;;;;;;;;;5093871;28;1179;-72
2023/01/29 16:34:47;;;;;;;;;;;;;;;;;;5095895;28;777;-74
2023/01/29 16:37:18;;;;;;;;;;;;;;;;;;5093283;28;1285;-72
2023/01/29 16:39:45;;;;;;;;;;;;;;;;;;5094266;28;1153;-73
2023/01/29 16:42:11;;;;;;;;;;;;;;;;;;5093421;28;951;-73
2023/01/29 16:44:39;;;;;;;;;;;;;;;;;;5093202;28;1308;-73
2023/01/29 16:47:12;;;;;;;;;;;;;;;;;;5094670;28;1047;-73
2023/01/29 16:49:37;;;;;;;;;;;;;;;;;;5093766;28;1914;-73
2023/01/29 16:52:22;;;;;;;;;;;;;;;;;;5093513;28;1300;-73
2023/01/29 16:54:47;;;;;;;;;;;;;;;;;;5093227;28;1072;-73
2023/01/29 16:57:15;;;;;;;;;;;;;;;;;;5092071;28;1166;-73
2023/01/29 16:59:42;;;;;;;;;;;;;;;;;;5093686;28;927;-73
2023/01/29 17:02:20;;;;;;;;;;;;;;;;;;5093278;28;1268;-73
2023/01/29 17:04:45;;;;;;;;;;;;;;;;;;5093357;28;1309;-72
2023/01/29 17:07:15;;;;;;;;;;;;;;;;;;5075997;28;1284;-73
2023/01/29 17:09:41;;;;;;;;;;;;;;;;;;5094232;28;1972;-73
2023/01/29 17:12:07;;;;;;;;;;;;;;;;;;5076275;28;1294;-73
2023/01/29 17:14:34;;;;;;;;;;;;;;;;;;5092964;28;1178;-72
2023/01/29 17:17:18;;;;;;;;;;;;;;;;;;5094901;28;801;-73
2023/01/29 17:19:43;;;;;;;;;;;;;;;;;;5094784;28;859;-72
2023/01/29 17:22:13;;;;;;;;;;;;;;;;;;5094552;28;986;-72
2023/01/29 17:24:39;;;;;;;;;;;;;;;;;;5094611;28;821;-73
2023/01/29 17:27:04;;;;;;;;;;;;;;;;;;5092442;28;1237;-72
2023/01/29 17:29:30;;;;;;;;;;;;;;;;;;5094292;28;1973;-73
2023/01/29 17:31:58;;;;;;;;;;;;;;;;;;5092547;28;1065;-74
2023/01/29 17:34:24;;;;;;;;;;;;;;;;;;5092567;28;1048;-73
2023/01/29 17:36:49;;;;;;;;;;;;;;;;;;5092867;28;1376;-74
2023/01/29 17:39:18;;;;;;;;;;;;;;;;;;5093928;28;1005;-74
2023/01/29 17:41:44;;;;;;;;;;;;;;;;;;5094240;28;903;-74
2023/01/29 17:44:10;;;;;;;;;;;;;;;;;;5092512;28;1158;-74
2023/01/29 17:46:35;;;;;;;;;;;;;;;;;;5092676;28;1174;-74